createdAt,value
2022-09-20T00:02:03.010Z,99
2022-09-20T00:04:11.515Z,99
2022-09-20T00:04:46.023Z,99
2022-09-20T00:06:18.981Z,99
2022-09-20T00:06:49.214Z,99
2022-09-20T00:08:26.811Z,99
2022-09-20T00:08:55.074Z,99
2022-09-20T00:10:35.836Z,99
2022-09-20T00:10:57.580Z,99
2022-09-20T00:12:42.982Z,99
2022-09-20T00:13:01.606Z,99
2022-09-20T00:14:50.896Z,99
2022-09-20T00:16:59.210Z,99
2022-09-20T00:19:07.374Z,99
2022-09-20T00:21:16.021Z,99
2022-09-20T00:21:48.500Z,99
2022-09-20T00:23:23.105Z,99
2022-09-20T00:23:52.485Z,99
2022-09-20T00:25:30.944Z,99
2022-09-20T00:25:56.404Z,99
2022-09-20T00:27:39.105Z,99
2022-09-20T00:28:00.252Z,99
2022-09-20T00:29:47.176Z,99
2022-09-20T00:30:08.857Z,99
2022-09-20T00:31:55.960Z,99
2022-09-20T00:34:03.082Z,99
2022-09-20T00:36:11.505Z,99
2022-09-20T00:36:47.505Z,99
2022-09-20T00:38:19.025Z,99
2022-09-20T00:38:51.292Z,99
2022-09-20T00:40:27.738Z,99
2022-09-20T00:40:56.128Z,99
2022-09-20T00:42:38.058Z,99
2022-09-20T00:42:59.968Z,99
2022-09-20T00:54:26.032Z,99
2022-09-20T00:55:25.607Z,99
2022-09-20T00:55:56.218Z,99
2022-09-20T00:57:30.978Z,99
2022-09-20T00:57:58.331Z,99
2022-09-20T00:59:38.990Z,99
2022-09-20T01:06:02.906Z,99
2022-09-20T01:08:11.458Z,99
2022-09-20T01:10:18.896Z,99
2022-09-20T01:10:55.192Z,99
2022-09-20T01:12:26.978Z,99
2022-09-20T01:12:57.386Z,99
2022-09-20T01:14:36.079Z,99
2022-09-20T01:15:04.269Z,99
2022-09-20T01:16:43.071Z,99
2022-09-20T01:17:06.021Z,99
2022-09-20T01:18:50.924Z,99
2022-09-20T01:19:09.532Z,99
2022-09-20T01:20:58.985Z,99
2022-09-20T01:23:06.990Z,99
2022-09-20T01:25:16.050Z,99
2022-09-20T01:25:52.358Z,99
2022-09-20T01:27:23.029Z,99
2022-09-20T01:27:56.491Z,99
2022-09-20T01:29:30.930Z,99
2022-09-20T01:30:03.336Z,99
2022-09-20T01:31:39.303Z,99
2022-09-20T01:32:06.193Z,99
2022-09-20T01:33:47.087Z,99
2022-09-20T01:34:08.535Z,99
2022-09-20T01:35:56.037Z,99
2022-09-20T01:36:12.498Z,99
2022-09-20T01:38:03.103Z,99
2022-09-20T01:40:11.766Z,99
2022-09-20T01:42:18.904Z,99
2022-09-20T01:42:55.994Z,99
2022-09-20T01:44:27.034Z,99
2022-09-20T01:44:59.770Z,99
2022-09-20T01:46:36.006Z,99
2022-09-20T01:47:05.142Z,99
2022-09-20T01:48:42.935Z,99
2022-09-20T01:49:07.688Z,99
2022-09-20T01:50:50.960Z,99
2022-09-20T01:51:11.521Z,99
2022-09-20T01:52:58.885Z,99
2022-09-20T01:53:15.734Z,99
2022-09-20T01:55:06.878Z,99
2022-09-20T01:57:15.744Z,99
2022-09-20T01:59:24.475Z,99
2022-09-20T01:59:58.541Z,99
2022-09-20T02:01:31.032Z,99
2022-09-20T02:02:02.562Z,99
2022-09-20T02:03:39.021Z,99
2022-09-20T02:04:06.531Z,99
2022-09-20T02:05:47.141Z,99
2022-09-20T02:06:10.629Z,99
2022-09-20T02:07:55.862Z,99
2022-09-20T02:08:15.730Z,99
2022-09-20T02:10:03.242Z,99
2022-09-20T02:12:11.577Z,99
2022-09-20T02:14:19.098Z,99
2022-09-20T02:16:26.969Z,99
2022-09-20T02:17:01.402Z,99
2022-09-20T02:18:36.132Z,99
2022-09-20T02:19:06.085Z,99
2022-09-20T02:20:42.821Z,99
2022-09-20T02:21:09.383Z,99
2022-09-20T02:22:51.191Z,99
2022-09-20T02:23:14.958Z,99
2022-09-20T02:24:59.048Z,99
2022-09-20T02:25:17.459Z,99
2022-09-20T02:27:07.145Z,99
2022-09-20T02:29:15.732Z,99
2022-09-20T02:31:23.239Z,99
2022-09-20T02:32:00.506Z,99
2022-09-20T02:33:30.737Z,99
2022-09-20T02:34:05.929Z,99
2022-09-20T02:35:39.136Z,99
2022-09-20T02:36:08.376Z,99
2022-09-20T02:37:47.061Z,99
2022-09-20T02:38:12.483Z,99
2022-09-20T02:39:56.056Z,99
2022-09-20T02:40:16.649Z,99
2022-09-20T02:42:03.071Z,99
2022-09-20T02:42:20.693Z,99
2022-09-20T02:44:11.778Z,99
2022-09-20T02:46:19.086Z,99
2022-09-20T02:48:27.029Z,99
2022-09-20T02:49:04.917Z,99
2022-09-20T02:50:36.072Z,99
2022-09-20T02:51:07.470Z,99
2022-09-20T02:52:43.031Z,99
2022-09-20T02:53:11.593Z,99
2022-09-20T02:54:50.992Z,99
2022-09-20T02:55:15.775Z,99
2022-09-20T02:56:58.869Z,99
2022-09-20T02:57:19.413Z,99
2022-09-20T02:59:07.268Z,99
2022-09-20T02:59:25.155Z,99
2022-09-20T03:01:15.785Z,99
2022-09-20T03:03:23.098Z,99
2022-09-20T03:05:30.846Z,99
2022-09-20T03:06:06.514Z,99
2022-09-20T03:07:39.089Z,99
2022-09-20T03:08:10.515Z,99
2022-09-20T03:09:47.017Z,99
2022-09-20T03:10:15.824Z,99
2022-09-20T03:11:56.065Z,99
2022-09-20T03:12:18.549Z,99
2022-09-20T03:14:03.022Z,99
2022-09-20T03:14:22.503Z,99
2022-09-20T03:16:11.845Z,99
2022-09-20T03:18:19.008Z,99
2022-09-20T03:20:26.861Z,99
2022-09-20T03:25:15.022Z,99
2022-09-20T03:26:51.107Z,99
2022-09-20T03:27:17.452Z,99
2022-09-20T03:28:59.180Z,99
2022-09-20T03:29:21.612Z,99
2022-09-20T03:31:07.131Z,99
2022-09-20T03:31:26.185Z,99
2022-09-20T03:33:15.893Z,99
2022-09-20T03:35:22.991Z,99
2022-09-20T03:37:30.867Z,99
2022-09-20T03:38:08.628Z,99
2022-09-20T03:39:39.090Z,99
2022-09-20T03:40:12.771Z,99
2022-09-20T03:41:46.999Z,99
2022-09-20T03:42:16.454Z,99
2022-09-20T03:43:56.167Z,99
2022-09-20T03:44:20.595Z,99
2022-09-20T03:46:02.926Z,99
2022-09-20T03:46:25.941Z,99
2022-09-20T03:48:11.527Z,99
2022-09-20T03:48:28.472Z,99
2022-09-20T03:50:18.906Z,99
2022-09-20T03:52:27.057Z,99
2022-09-20T03:54:35.969Z,99
2022-09-20T03:55:11.636Z,99
2022-09-20T03:56:42.817Z,99
2022-09-20T03:57:16.028Z,99
2022-09-20T03:58:51.004Z,99
2022-09-20T03:59:19.689Z,99
2022-09-20T04:01:01.853Z,99
2022-09-20T04:01:25.236Z,99
2022-09-20T04:03:07.056Z,99
2022-09-20T04:03:27.740Z,99
2022-09-20T04:05:15.888Z,99
2022-09-20T04:07:23.091Z,99
2022-09-20T04:09:30.815Z,99
2022-09-20T04:11:39.089Z,99
2022-09-20T04:12:15.865Z,99
2022-09-20T04:13:47.076Z,99
2022-09-20T04:14:18.496Z,99
2022-09-20T04:15:59.028Z,99
2022-09-20T04:16:22.653Z,99
2022-09-20T04:18:03.048Z,99
2022-09-20T04:18:26.303Z,99
2022-09-20T04:20:11.599Z,99
2022-09-20T04:20:30.239Z,99
2022-09-20T04:22:19.115Z,99
2022-09-20T04:22:36.167Z,99
2022-09-20T04:24:27.115Z,99
2022-09-20T04:26:36.249Z,99
2022-09-20T04:28:42.919Z,99
2022-09-20T04:29:17.475Z,99
2022-09-20T04:30:53.761Z,99
2022-09-20T04:31:21.599Z,99
2022-09-20T04:32:58.744Z,99
2022-09-20T04:33:26.039Z,99
2022-09-20T04:35:07.114Z,99
2022-09-20T04:35:29.431Z,99
2022-09-20T04:37:15.998Z,99
2022-09-20T04:37:34.854Z,99
2022-09-20T04:39:23.080Z,99
2022-09-20T04:41:32.546Z,99
2022-09-20T04:43:39.089Z,99
2022-09-20T04:44:16.385Z,99
2022-09-20T04:45:49.803Z,99
2022-09-20T04:46:20.388Z,99
2022-09-20T04:47:56.001Z,99
2022-09-20T04:48:26.106Z,99
2022-09-20T04:50:02.965Z,99
2022-09-20T04:50:28.660Z,99
2022-09-20T04:52:11.750Z,99
2022-09-20T04:52:32.535Z,99
2022-09-20T04:54:18.994Z,99
2022-09-20T04:54:36.534Z,99
2022-09-20T04:56:31.115Z,99
2022-09-20T04:58:35.931Z,99
2022-09-20T05:00:45.801Z,99
2022-09-20T05:01:19.734Z,99
2022-09-20T05:02:51.073Z,99
2022-09-20T05:03:24.991Z,99
2022-09-20T05:04:59.020Z,99
2022-09-20T05:05:27.523Z,99
2022-09-20T05:07:07.306Z,99
2022-09-20T05:07:31.479Z,99
2022-09-20T05:09:16.264Z,99
2022-09-20T05:09:36.220Z,99
2022-09-20T05:11:23.374Z,99
2022-09-20T05:11:39.816Z,99
2022-09-20T05:13:31.339Z,99
2022-09-20T05:15:42.043Z,99
2022-09-20T05:17:47.195Z,99
2022-09-20T05:18:22.792Z,99
2022-09-20T05:19:56.336Z,99
2022-09-20T05:20:26.872Z,99
2022-09-20T05:22:03.189Z,99
2022-09-20T05:22:30.756Z,99
2022-09-20T05:24:12.664Z,99
2022-09-20T05:24:36.241Z,99
2022-09-20T05:26:19.426Z,99
2022-09-20T05:26:38.858Z,99
2022-09-20T05:28:27.299Z,99
2022-09-20T05:30:39.051Z,99
2022-09-20T05:32:43.318Z,99
2022-09-20T05:34:51.467Z,99
2022-09-20T05:35:26.035Z,99
2022-09-20T05:36:59.147Z,99
2022-09-20T05:37:29.642Z,99
2022-09-20T05:39:07.347Z,99
2022-09-20T05:39:35.230Z,99
2022-09-20T05:41:16.403Z,99
2022-09-20T05:41:37.868Z,99
2022-09-20T05:43:23.343Z,99
2022-09-20T05:43:41.844Z,99
2022-09-20T05:45:34.226Z,99
2022-09-20T05:47:39.191Z,99
2022-09-20T05:49:47.144Z,99
2022-09-20T05:51:56.535Z,99
2022-09-20T05:52:29.074Z,99
2022-09-20T05:54:03.211Z,99
2022-09-20T05:54:32.652Z,99
2022-09-20T05:56:11.803Z,99
2022-09-20T05:56:36.870Z,99
2022-09-20T05:58:19.351Z,99
2022-09-20T05:58:40.821Z,99
2022-09-20T06:00:29.903Z,99
2022-09-20T06:00:46.327Z,99
2022-09-20T06:02:36.392Z,99
2022-09-20T06:04:43.371Z,99
2022-09-20T06:06:51.290Z,99
2022-09-20T06:07:27.622Z,99
2022-09-20T06:08:59.254Z,99
2022-09-20T06:09:31.644Z,99
2022-09-20T06:11:07.445Z,99
2022-09-20T06:11:36.338Z,99
2022-09-20T06:13:16.458Z,99
2022-09-20T06:13:39.878Z,99
2022-09-20T06:15:26.081Z,99
2022-09-20T06:15:44.938Z,99
2022-09-20T06:17:31.059Z,99
2022-09-20T06:17:47.829Z,99
2022-09-20T06:19:39.183Z,99
2022-09-20T06:21:47.339Z,99
2022-09-20T06:23:56.311Z,99
2022-09-20T06:24:30.787Z,99
2022-09-20T06:26:02.942Z,99
2022-09-20T06:26:36.403Z,99
2022-09-20T06:28:12.024Z,99
2022-09-20T06:28:38.642Z,99
2022-09-20T06:30:21.984Z,99
2022-09-20T06:30:42.869Z,99
2022-09-20T06:32:27.133Z,99
2022-09-20T06:32:46.617Z,99
2022-09-20T06:34:36.399Z,99
2022-09-20T06:36:43.153Z,99
2022-09-20T06:38:51.403Z,99
2022-09-20T06:40:59.357Z,99
2022-09-20T06:41:35.216Z,99
2022-09-20T06:43:07.505Z,99
2022-09-20T06:43:37.915Z,99
2022-09-20T06:45:18.956Z,99
2022-09-20T06:45:42.001Z,99
2022-09-20T06:47:23.542Z,99
2022-09-20T06:47:46.490Z,99
2022-09-20T06:49:31.396Z,99
2022-09-20T06:49:49.958Z,99
2022-09-20T06:51:39.383Z,99
2022-09-20T06:53:47.363Z,99
2022-09-20T06:55:56.259Z,99
2022-09-20T06:56:32.903Z,99
2022-09-20T06:58:03.204Z,99
2022-09-20T06:58:36.802Z,99
2022-09-20T07:00:14.359Z,99
2022-09-20T07:00:40.903Z,99
2022-09-20T07:02:19.443Z,99
2022-09-20T07:02:46.283Z,99
2022-09-20T07:04:27.408Z,99
2022-09-20T07:04:48.843Z,99
2022-09-20T07:06:36.313Z,99
2022-09-20T07:06:52.935Z,99
2022-09-20T07:08:43.127Z,99
2022-09-20T07:10:51.159Z,99
2022-09-20T07:12:59.368Z,99
2022-09-20T07:13:36.355Z,99
2022-09-20T07:15:09.976Z,99
2022-09-20T07:15:39.758Z,99
2022-09-20T07:17:16.291Z,99
2022-09-20T07:17:45.229Z,99
2022-09-20T07:19:23.320Z,99
2022-09-20T07:19:47.744Z,99
2022-09-20T07:21:31.059Z,99
2022-09-20T07:21:51.686Z,99
2022-09-20T07:23:39.363Z,99
2022-09-20T07:23:56.271Z,99
2022-09-20T07:25:47.281Z,99
2022-09-20T07:27:56.332Z,99
2022-09-20T07:30:06.127Z,99
2022-09-20T07:30:38.613Z,99
2022-09-20T07:32:11.910Z,99
2022-09-20T07:32:42.909Z,99
2022-09-20T07:34:19.177Z,99
2022-09-20T07:34:46.707Z,99
2022-09-20T07:36:27.324Z,99
2022-09-20T07:36:50.833Z,99
2022-09-20T07:38:36.092Z,99
2022-09-20T07:38:56.416Z,99
2022-09-20T07:40:43.481Z,99
2022-09-20T07:42:55.990Z,99
2022-09-20T07:44:59.423Z,99
2022-09-20T07:47:07.360Z,99
2022-09-20T07:47:41.904Z,99
2022-09-20T07:49:16.214Z,99
2022-09-20T07:49:46.359Z,99
2022-09-20T07:51:23.679Z,99
2022-09-20T07:51:50.302Z,99
2022-09-20T07:53:31.632Z,99
2022-09-20T07:53:55.846Z,99
2022-09-20T07:55:39.730Z,99
2022-09-20T07:55:58.120Z,99
2022-09-20T07:57:47.515Z,99
2022-09-20T07:59:56.592Z,99
2022-09-20T08:02:03.621Z,99
2022-09-20T08:02:41.254Z,99
2022-09-20T08:04:12.120Z,99
2022-09-20T08:04:46.531Z,99
2022-09-20T08:06:19.720Z,98
2022-09-20T08:06:49.150Z,98
2022-09-20T10:00:17.462Z,65
2022-09-20T10:01:03.037Z,64
2022-09-20T10:01:33.397Z,64
2022-09-20T10:02:02.122Z,66
2022-09-20T10:02:33.173Z,64
2022-09-20T10:03:04.232Z,63
2022-09-20T10:03:36.151Z,63
2022-09-20T10:04:06.035Z,64
2022-09-20T10:04:37.045Z,64
2022-09-20T10:05:08.089Z,65
2022-09-20T10:05:39.199Z,65
2022-09-20T10:06:10.233Z,67
2022-09-20T10:06:41.250Z,65
2022-09-20T10:07:12.051Z,65
2022-09-20T10:07:43.141Z,64
2022-09-20T10:08:14.322Z,63
2022-09-20T10:08:46.074Z,63
2022-09-20T10:09:16.106Z,63
2022-09-20T10:09:46.896Z,62
2022-09-20T10:10:18.056Z,63
2022-09-20T10:10:49.129Z,64
2022-09-20T10:11:20.048Z,63
2022-09-20T10:11:51.092Z,63
2022-09-20T10:12:21.957Z,62
2022-09-20T10:12:53.155Z,62
2022-09-20T10:13:24.309Z,63
2022-09-20T10:13:56.278Z,64
2022-09-20T10:14:26.345Z,62
2022-09-20T10:14:57.024Z,64
2022-09-20T10:15:30.978Z,61
2022-09-20T10:15:59.323Z,62
2022-09-20T10:16:30.184Z,62
2022-09-20T10:17:01.120Z,63
2022-09-20T10:17:31.876Z,64
2022-09-20T10:18:03.155Z,65
2022-09-20T10:18:34.219Z,61
2022-09-20T10:19:06.118Z,62
2022-09-20T10:19:36.013Z,62
2022-09-20T10:20:06.970Z,61
2022-09-20T10:20:42.435Z,60
2022-09-20T10:21:09.166Z,61
2022-09-20T10:21:40.334Z,63
2022-09-20T10:22:11.326Z,65
2022-09-20T10:22:42.306Z,61
2022-09-20T10:23:45.167Z,63
2022-09-20T10:24:16.152Z,60
2022-09-20T10:24:51.018Z,60
2022-09-20T10:25:16.978Z,59
2022-09-20T10:25:47.858Z,60
2022-09-20T10:26:19.105Z,59
2022-09-20T10:26:50.261Z,60
2022-09-20T10:27:21.259Z,60
2022-09-20T10:27:52.254Z,60
2022-09-20T10:28:23.191Z,60
2022-09-20T10:28:54.196Z,60
2022-09-20T10:29:26.386Z,60
2022-09-20T10:29:56.315Z,59
2022-09-20T10:30:29.909Z,57
2022-09-20T10:30:58.127Z,57
2022-09-20T10:31:29.384Z,57
2022-09-20T10:32:00.212Z,58
2022-09-20T10:32:31.076Z,56
2022-09-20T10:33:01.955Z,57
2022-09-20T10:33:32.971Z,58
2022-09-20T10:34:04.151Z,55
2022-09-20T10:34:36.080Z,56
2022-09-20T10:35:06.156Z,62
2022-09-20T10:35:37.028Z,55
2022-09-20T10:36:08.160Z,53
2022-09-20T10:36:39.290Z,53
2022-09-20T10:37:10.262Z,54
2022-09-20T10:37:42.590Z,53
2022-09-20T10:38:12.079Z,54
2022-09-20T10:38:43.085Z,55
2022-09-20T10:39:14.001Z,57
2022-09-20T10:39:46.032Z,56
2022-09-20T10:40:16.231Z,59
2022-09-20T10:40:46.946Z,58
2022-09-20T10:41:17.879Z,59
2022-09-20T10:41:48.847Z,59
2022-09-20T10:42:20.343Z,61
2022-09-20T10:42:51.201Z,56
2022-09-20T10:43:22.069Z,58
2022-09-20T10:43:53.245Z,58
2022-09-20T10:44:24.235Z,59
2022-09-20T10:44:56.397Z,57
2022-09-20T10:45:53.294Z,56
2022-09-20T10:46:32.343Z,57
2022-09-20T10:46:59.672Z,57
2022-09-20T10:47:30.400Z,56
2022-09-20T10:48:01.164Z,55
2022-09-20T10:48:31.887Z,57
2022-09-20T10:49:02.862Z,57
2022-09-20T10:49:33.993Z,59
2022-09-20T10:50:06.142Z,60
2022-09-20T10:50:36.081Z,59
2022-09-20T10:51:06.954Z,58
2022-09-20T10:51:38.042Z,57
2022-09-20T10:52:09.464Z,56
2022-09-20T10:52:40.261Z,55
2022-09-20T10:53:11.188Z,58
2022-09-20T10:53:42.221Z,56
2022-09-20T10:54:13.162Z,58
2022-09-20T10:54:44.155Z,55
2022-09-20T10:55:16.210Z,54
2022-09-20T10:55:46.251Z,56
2022-09-20T10:56:17.015Z,57
2022-09-20T10:56:48.006Z,56
2022-09-20T10:57:19.151Z,54
2022-09-20T10:57:50.169Z,55
2022-09-20T10:58:21.217Z,55
2022-09-20T10:58:52.118Z,57
2022-09-20T10:59:23.213Z,57
2022-09-20T10:59:54.377Z,55
2022-09-20T11:00:28.949Z,55
2022-09-20T11:00:56.209Z,55
2022-09-20T11:01:27.081Z,56
2022-09-20T11:01:58.179Z,55
2022-09-20T11:02:28.958Z,56
2022-09-20T11:03:00.299Z,55
2022-09-20T11:03:31.235Z,53
2022-09-20T11:04:02.124Z,54
2022-09-20T11:04:32.920Z,54
2022-09-20T11:05:03.884Z,52
2022-09-20T11:05:36.169Z,51
2022-09-20T11:06:06.125Z,53
2022-09-20T11:06:37.122Z,53
2022-09-20T11:07:08.208Z,55
2022-09-20T11:07:39.225Z,53
2022-09-20T11:08:10.319Z,51
2022-09-20T11:08:41.253Z,51
2022-09-20T11:09:14.138Z,51
2022-09-20T11:09:43.068Z,53
2022-09-20T11:10:14.020Z,54
2022-09-20T11:10:46.291Z,53
2022-09-20T11:11:16.154Z,53
2022-09-20T11:11:47.052Z,51
2022-09-20T11:12:17.895Z,51
2022-09-20T11:12:49.107Z,51
2022-09-20T11:13:20.164Z,52
2022-09-20T11:13:51.440Z,52
2022-09-20T11:14:22.099Z,52
2022-09-20T11:14:53.129Z,51
2022-09-20T11:15:27.127Z,53
2022-09-20T11:15:56.239Z,56
2022-09-20T11:16:26.309Z,54
2022-09-20T11:16:57.180Z,54
2022-09-20T11:17:28.127Z,53
2022-09-20T11:17:58.874Z,53
2022-09-20T11:18:30.358Z,54
2022-09-20T11:19:01.296Z,56
2022-09-20T11:19:32.129Z,55
2022-09-20T11:20:07.156Z,56
2022-09-20T11:20:34.128Z,56
2022-09-20T11:21:06.292Z,56
2022-09-20T11:21:35.981Z,56
2022-09-20T11:22:07.041Z,57
2022-09-20T11:22:38.142Z,55
2022-09-20T11:23:09.213Z,55
2022-09-20T11:23:40.289Z,57
2022-09-20T11:24:11.137Z,54
2022-09-20T11:24:42.169Z,58
2022-09-20T11:25:15.730Z,56
2022-09-20T11:25:44.177Z,56
2022-09-20T11:26:16.263Z,56
2022-09-20T11:26:46.234Z,54
2022-09-20T11:27:16.905Z,54
2022-09-20T11:27:47.878Z,56
2022-09-20T11:28:19.019Z,56
2022-09-20T11:28:49.910Z,54
2022-09-20T11:29:20.936Z,57
2022-09-20T11:29:52.064Z,57
2022-09-20T11:30:25.784Z,57
2022-09-20T11:30:53.937Z,58
2022-09-20T11:31:26.358Z,55
2022-09-20T11:31:56.082Z,55
2022-09-20T11:32:26.965Z,55
2022-09-20T11:32:58.193Z,56
2022-09-20T11:33:28.974Z,58
2022-09-20T11:33:59.900Z,54
2022-09-20T11:34:31.164Z,55
2022-09-20T11:35:16.068Z,55
2022-09-20T11:35:38.689Z,55
2022-09-20T11:55:11.307Z,53
2022-09-20T11:55:42.377Z,53
2022-09-20T11:56:13.264Z,52
2022-09-20T11:56:44.021Z,52
2022-09-20T11:57:16.205Z,52
2022-09-20T11:57:46.228Z,53
2022-09-20T11:58:17.065Z,52
2022-09-20T11:58:48.003Z,51
2022-09-20T11:59:19.045Z,52
2022-09-20T11:59:50.223Z,51
2022-09-20T12:00:23.946Z,52
2022-09-20T12:00:52.188Z,52
2022-09-20T12:01:27.946Z,54
2022-09-20T12:01:54.169Z,54
2022-09-20T12:02:26.403Z,52
2022-09-20T12:02:56.401Z,52
2022-09-20T12:03:27.210Z,52
2022-09-20T12:04:14.575Z,52
2022-09-20T12:05:00.137Z,52
2022-09-20T12:05:31.439Z,54
2022-09-20T12:06:02.207Z,54
2022-09-20T12:06:32.973Z,52
2022-09-20T12:07:08.892Z,52
2022-09-20T12:07:36.133Z,51
2022-09-20T12:08:06.280Z,51
2022-09-20T12:08:37.091Z,52
2022-09-20T12:09:08.119Z,51
2022-09-20T12:09:39.134Z,51
2022-09-20T12:10:10.321Z,52
2022-09-20T12:10:41.257Z,52
2022-09-20T12:11:12.049Z,52
2022-09-20T12:11:43.293Z,53
2022-09-20T12:12:14.183Z,53
2022-09-20T12:12:46.238Z,56
2022-09-20T12:13:16.272Z,54
2022-09-20T12:13:47.193Z,53
2022-09-20T12:14:17.988Z,54
2022-09-20T12:14:49.010Z,54
2022-09-20T12:15:22.692Z,54
2022-09-20T12:15:51.362Z,53
2022-09-20T12:16:22.043Z,56
2022-09-20T12:16:53.250Z,53
2022-09-20T12:17:24.240Z,53
2022-09-20T12:17:56.330Z,54
2022-09-20T12:18:26.162Z,55
2022-09-20T12:18:57.134Z,54
2022-09-20T12:19:28.253Z,55
2022-09-20T12:19:59.176Z,55
2022-09-20T12:20:30.053Z,53
2022-09-20T12:21:01.158Z,53
2022-09-20T12:21:32.153Z,53
2022-09-20T12:22:02.894Z,54
2022-09-20T12:22:33.944Z,54
2022-09-20T12:23:06.234Z,55
2022-09-20T12:23:35.881Z,54
2022-09-20T12:24:06.972Z,56
2022-09-20T12:24:40.936Z,57
2022-09-20T12:25:09.030Z,57
2022-09-20T12:25:40.153Z,56
2022-09-20T12:26:11.118Z,56
2022-09-20T12:26:42.190Z,54
2022-09-20T12:27:13.220Z,53
2022-09-20T12:27:44.147Z,53
2022-09-20T12:28:16.349Z,54
2022-09-20T12:28:46.401Z,53
2022-09-20T12:29:17.153Z,53
2022-09-20T12:29:48.003Z,55
2022-09-20T12:30:21.629Z,56
2022-09-20T12:30:50.219Z,53
2022-09-20T12:31:21.345Z,52
2022-09-20T12:31:52.143Z,53
2022-09-20T12:32:23.061Z,52
2022-09-20T12:32:54.261Z,53
2022-09-20T12:33:26.083Z,52
2022-09-20T12:33:56.208Z,52
2022-09-20T12:34:27.021Z,52
2022-09-20T12:34:58.237Z,53
2022-09-20T12:35:29.215Z,52
2022-09-20T12:35:59.997Z,53
2022-09-20T12:36:31.309Z,53
2022-09-20T12:37:02.185Z,54
2022-09-20T12:37:33.005Z,52
2022-09-20T12:38:03.917Z,52
2022-09-20T12:38:36.145Z,52
2022-09-20T12:39:06.354Z,51
2022-09-20T12:39:37.153Z,52
2022-09-20T12:40:08.326Z,53
2022-09-20T12:40:39.148Z,54
2022-09-20T12:41:10.290Z,53
2022-09-20T12:41:41.324Z,54
2022-09-20T12:42:12.555Z,52
2022-09-20T12:42:43.266Z,51
2022-09-20T12:43:14.026Z,53
2022-09-20T12:43:46.390Z,54
2022-09-20T12:44:16.478Z,52
2022-09-20T12:44:47.210Z,54
2022-09-20T12:45:20.918Z,54
2022-09-20T12:45:49.007Z,56
2022-09-20T12:46:20.240Z,55
2022-09-20T12:46:51.173Z,52
2022-09-20T12:47:22.292Z,55
2022-09-20T12:47:53.341Z,53
2022-09-20T12:48:24.304Z,55
2022-09-20T12:48:56.197Z,54
2022-09-20T12:49:26.199Z,55
2022-09-20T12:49:57.101Z,53
2022-09-20T12:50:28.251Z,51
2022-09-20T12:50:59.323Z,52
2022-09-20T12:51:30.136Z,51
2022-09-20T12:52:01.379Z,52
2022-09-20T12:52:32.143Z,51
2022-09-20T12:53:03.005Z,52
2022-09-20T12:53:33.902Z,52
2022-09-20T12:54:06.195Z,55
2022-09-20T12:54:36.057Z,54
2022-09-20T12:55:10.934Z,54
2022-09-20T12:55:40.355Z,53
2022-09-20T12:56:09.260Z,52
2022-09-20T12:56:40.239Z,53
2022-09-20T12:57:11.297Z,49
2022-09-20T12:57:42.529Z,52
2022-09-20T12:58:13.076Z,52
2022-09-20T12:58:44.085Z,50
2022-09-20T12:59:15.991Z,51
2022-09-20T12:59:46.501Z,53
2022-09-20T13:00:20.128Z,55
2022-09-20T13:00:48.268Z,52
2022-09-20T13:01:19.082Z,57
2022-09-20T13:01:50.199Z,55
2022-09-20T13:02:21.388Z,53
2022-09-20T13:02:52.140Z,52
2022-09-20T13:03:23.124Z,52
2022-09-20T13:03:54.141Z,52
2022-09-20T13:04:26.358Z,51
2022-09-20T13:04:56.178Z,52
2022-09-20T13:05:27.166Z,52
2022-09-20T13:05:58.360Z,50
2022-09-20T13:06:29.179Z,53
2022-09-20T13:07:00.129Z,51
2022-09-20T13:07:31.103Z,49
2022-09-20T13:08:02.174Z,50
2022-09-20T13:08:32.988Z,50
2022-09-20T13:09:04.089Z,49
2022-09-20T13:09:36.159Z,50
2022-09-20T13:10:06.174Z,50
2022-09-20T13:10:37.113Z,51
2022-09-20T13:11:08.147Z,50
2022-09-20T13:11:39.203Z,48
2022-09-20T13:12:10.330Z,48
2022-09-20T13:12:41.283Z,47
2022-09-20T13:13:12.282Z,49
2022-09-20T13:13:43.482Z,49
2022-09-20T13:14:14.194Z,48
2022-09-20T13:14:46.473Z,46
2022-09-20T13:15:18.830Z,48
2022-09-20T13:15:46.898Z,49
2022-09-20T13:16:19.749Z,50
2022-09-20T13:16:49.066Z,48
2022-09-20T13:17:20.149Z,49
2022-09-20T13:17:51.236Z,49
2022-09-20T13:18:22.176Z,49
2022-09-20T13:18:53.286Z,49
2022-09-20T13:19:24.210Z,49
2022-09-20T13:19:55.990Z,51
2022-09-20T13:20:26.164Z,51
2022-09-20T13:20:57.138Z,51
2022-09-20T13:21:28.323Z,52
2022-09-20T13:21:59.183Z,50
2022-09-20T13:22:30.104Z,51
2022-09-20T13:23:01.379Z,50
2022-09-20T13:23:32.222Z,52
2022-09-20T13:24:03.126Z,53
2022-09-20T13:24:34.135Z,51
2022-09-20T13:25:06.298Z,51
2022-09-20T13:25:36.283Z,51
2022-09-20T13:26:07.226Z,51
2022-09-20T13:26:38.185Z,50
2022-09-20T13:27:09.070Z,50
2022-09-20T13:27:40.214Z,49
2022-09-20T13:28:11.145Z,50
2022-09-20T13:28:46.185Z,51
2022-09-20T13:29:13.546Z,50
2022-09-20T13:29:44.286Z,50
2022-09-20T13:30:19.027Z,50
2022-09-20T13:30:46.542Z,52
2022-09-20T13:31:18.995Z,50
2022-09-20T13:31:48.109Z,48
2022-09-20T13:32:19.051Z,48
2022-09-20T13:32:50.170Z,49
2022-09-20T13:33:22.470Z,49
2022-09-20T13:33:52.187Z,50
2022-09-20T13:34:23.090Z,50
2022-09-20T13:34:54.161Z,50
2022-09-20T13:35:26.212Z,52
2022-09-20T13:35:55.997Z,51
2022-09-20T13:36:27.023Z,52
2022-09-20T13:36:57.879Z,50
2022-09-20T13:37:29.226Z,51
2022-09-20T13:37:59.978Z,51
2022-09-20T13:38:30.982Z,52
2022-09-20T13:39:02.425Z,53
2022-09-20T13:39:33.073Z,54
2022-09-20T13:40:04.090Z,53
2022-09-20T13:40:36.262Z,54
2022-09-20T13:41:06.111Z,53
2022-09-20T13:41:37.030Z,54
2022-09-20T13:42:08.085Z,55
2022-09-20T13:42:39.185Z,55
2022-09-20T13:43:23.588Z,53
2022-09-20T13:43:41.200Z,53
2022-09-20T13:44:12.287Z,54
2022-09-20T13:44:43.217Z,55
2022-09-20T13:45:17.153Z,54
2022-09-20T13:45:46.013Z,55
2022-09-20T13:46:16.237Z,56
2022-09-20T13:46:47.309Z,54
2022-09-20T13:47:18.088Z,54
2022-09-20T13:47:49.102Z,55
2022-09-20T13:48:20.283Z,55
2022-09-20T13:48:51.066Z,56
2022-09-20T13:49:22.173Z,56
2022-09-20T13:49:53.254Z,54
2022-09-20T13:50:24.331Z,56
2022-09-20T13:50:56.240Z,55
2022-09-20T13:51:26.279Z,54
2022-09-20T13:51:57.098Z,55
2022-09-20T13:52:28.400Z,56
2022-09-20T13:52:59.292Z,56
2022-09-20T13:53:41.095Z,54
2022-09-20T13:54:01.091Z,55
2022-09-20T13:54:32.376Z,55
2022-09-20T13:55:03.363Z,56
2022-09-20T13:55:35.071Z,54
2022-09-20T13:56:07.262Z,53
2022-09-20T13:56:36.199Z,54
2022-09-20T13:57:07.302Z,53
2022-09-20T13:57:38.309Z,54
2022-09-20T13:58:10.418Z,55
2022-09-20T13:58:40.139Z,53
2022-09-20T13:59:11.290Z,54
2022-09-20T13:59:42.392Z,56
2022-09-20T14:00:16.033Z,55
2022-09-20T14:00:44.312Z,54
2022-09-20T14:01:16.200Z,55
2022-09-20T14:01:49.704Z,56
2022-09-20T14:02:17.394Z,56
2022-09-20T14:02:48.266Z,57
2022-09-20T14:03:19.133Z,55
2022-09-20T14:03:50.154Z,58
2022-09-20T14:04:21.186Z,55
2022-09-20T14:04:52.345Z,55
2022-09-20T14:05:23.227Z,57
2022-09-20T14:05:53.922Z,56
2022-09-20T14:06:26.179Z,56
2022-09-20T14:06:56.363Z,57
2022-09-20T14:07:27.290Z,56
2022-09-20T14:07:58.046Z,56
2022-09-20T14:08:28.861Z,57
2022-09-20T14:09:00.161Z,55
2022-09-20T14:09:31.052Z,56
2022-09-20T14:10:01.972Z,56
2022-09-20T14:10:33.280Z,57
2022-09-20T14:11:03.905Z,55
2022-09-20T14:11:36.030Z,56
2022-09-20T14:12:06.208Z,57
2022-09-20T14:12:37.066Z,56
2022-09-20T14:13:08.276Z,55
2022-09-20T14:13:39.259Z,58
2022-09-20T14:14:10.232Z,56
2022-09-20T14:14:41.217Z,58
2022-09-20T14:15:14.966Z,55
2022-09-20T14:15:43.118Z,56
2022-09-20T14:16:14.422Z,57
2022-09-20T14:16:46.053Z,57
2022-09-20T14:17:16.305Z,57
2022-09-20T14:17:47.334Z,56
2022-09-20T14:18:18.196Z,58
2022-09-20T14:18:49.162Z,56
2022-09-20T14:19:21.458Z,56
2022-09-20T14:19:51.074Z,55
2022-09-20T14:20:22.047Z,57
2022-09-20T14:20:53.262Z,55
2022-09-20T14:21:24.273Z,55
2022-09-20T14:21:56.187Z,55
2022-09-20T14:22:26.058Z,55
2022-09-20T14:22:59.139Z,56
2022-09-20T14:23:28.075Z,55
2022-09-20T14:23:59.354Z,58
2022-09-20T14:24:30.249Z,57
2022-09-20T14:25:01.119Z,57
2022-09-20T14:25:32.351Z,55
2022-09-20T14:26:03.194Z,56
2022-09-20T14:26:34.985Z,55
2022-09-20T14:27:06.146Z,56
2022-09-20T14:27:36.151Z,54
2022-09-20T14:28:07.121Z,56
2022-09-20T14:28:41.893Z,54
2022-09-20T14:29:09.222Z,55
2022-09-20T14:29:43.242Z,56